Pulpca — PHMT — position and weather

sailwx.info

Track history (hours):
 
Tides and Currents Weather Stations Pressure Air Temp Water Temp Dewpoint Dewpoint Depression Visibility Wind Speed Wind Dir Waves Ship Positions

Pulpca

Last reported at 2015-Jul-04 16:33 UTC. Time now 2015-Jul-04 17:00 UTC.
Position N 54°21' E 011°58'.

Length 205 m; draft 7 m.

Type: Ship (hazmat cat A). MMSI: 245097000.

Date/timePositionNaut miles runAvg speedWind from/ knotsBaromVisibWave heightAir tempDewpointWater temp
2015-Jul-04 16:33N 54°21' E 011°58'2120.7
2015-Jul-04 15:34N 54°11' E 011°27'2120.6
2015-Jul-04 14:32N 53°59' E 010°56'8 0.9
2015-Jul-04 06:10N 53°54' E 010°47'6 1.7
2015-Jul-04 02:23N 53°58' E 010°54'1416.5
2015-Jul-04 01:33N 54°08' E 011°11'1717.4
2015-Jul-04 00:33N 54°17' E 011°36'1717.3
2015-Jul-03 23:33N 54°26' E 012°02'1615.8
2015-Jul-03 22:33N 54°37' E 012°20'1817.6
2015-Jul-03 21:33N 54°47' E 012°46'1817.6
2015-Jul-03 20:33N 54°54' E 013°14'1817.6
2015-Jul-03 19:33N 55°00' E 013°42'1717.2
2015-Jul-03 18:33N 55°08' E 014°10'1817.7
2015-Jul-03 17:33N 55°21' E 014°30'1717.6
2015-Jul-03 16:33N 55°32' E 014°55'1817.6
2015-Jul-03 15:33N 55°41' E 015°22'1817.7
2015-Jul-03 14:32N 55°50' E 015°49'5417.7
2015-Jul-03 11:30N 56°20' E 017°09'2117.8
2015-Jul-03 10:20N 56°33' E 017°39'3217.9
2015-Jul-03 08:33N 56°52' E 018°25'1817.8
2015-Jul-03 07:33N 57°06' E 018°45'10617.7
2015-Jul-03 01:33N 58°32' E 020°44'1818.0
2015-Jul-03 00:33N 58°46' E 021°06'2517.9
2015-Jul-02 23:10N 59°05' E 021°36'1117.5
2015-Jul-02 22:32N 59°13' E 021°51'1717.6
2015-Jul-02 21:33N 59°24' E 022°17'1817.7
2015-Jul-02 20:34N 59°34' E 022°45'1414.4
2015-Jul-02 19:34N 59°46' E 023°00'3 0.2
2015-Jul-02 04:32N 59°49' E 022°57'0 0.5
2015-Jul-02 03:33N 59°49' E 022°56'1313.3
2015-Jul-02 02:33N 59°36' E 022°56'1818.1
2015-Jul-02 01:33N 59°23' E 022°32'15418.2
2015-Jul-01 17:06N 57°25' E 019°23'1018.2
2015-Jul-01 16:33N 57°17' E 019°11'1818.2
2015-Jul-01 15:33N 57°03' E 018°50'3818.2
2015-Jul-01 13:29N 56°36' E 018°02'9118.4
2015-Jul-01 08:31N 55°44' E 015°47'1818.8
2015-Jul-01 07:33N 55°35' E 015°19'1918.7
2015-Jul-01 06:33N 55°26' E 014°50'1818.2
2015-Jul-01 05:34N 55°14' E 014°27'1818.3
2015-Jul-01 04:33N 55°01' E 014°03'1918.6
2015-Jul-01 03:33N 54°55' E 013°33'2118.6
2015-Jul-01 02:24N 54°47' E 012°59'1618.4
2015-Jul-01 01:33N 54°40' E 012°34'1818.3
2015-Jul-01 00:33N 54°27' E 012°12'1818.4
2015-Jun-30 23:33N 54°17' E 011°46'1918.6
2015-Jun-30 22:33N 54°08' E 011°18'23 1.3
2015-Jun-30 05:30N 53°54' E 010°47'0 0.0
2015-Jun-30 04:33N 53°54' E 010°47'0 0.0
2015-Jun-30 03:32N 53°54' E 010°47'0 0.0
2015-Jun-30 02:33N 53°54' E 010°47'1 0.1
2015-Jun-29 05:12N 53°54' E 010°49'4 6.8
2015-Jun-29 04:33N 53°58' E 010°53'1615.9
2015-Jun-29 03:34N 54°08' E 011°14'1919.4
2015-Jun-29 02:33N 54°16' E 011°44'1918.8
2015-Jun-29 01:34N 54°27' E 012°10'2319.2
2015-Jun-29 00:22N 54°45' E 012°35'5519.1
2015-Jun-28 21:27N 54°40' E 014°11'1719.1
2015-Jun-28 20:33N 54°39' E 014°40'2019.6
2015-Jun-28 19:34N 54°42' E 015°14'6819.6
2015-Jun-28 16:05N 54°54' E 017°10'1719.4
2015-Jun-28 15:12N 54°56' E 017°40'1219.6
2015-Jun-28 14:33N 54°56' E 018°01'1919.3
2015-Jun-28 13:33N 54°56' E 018°35'1918.6
2015-Jun-28 12:33N 54°43' E 018°58'1616.2
2015-Jun-28 11:34N 54°32' E 018°37'3 3.2
2015-Jun-28 10:33N 54°32' E 018°32'0 0.0
2015-Jun-28 09:33N 54°32' E 018°32'0 0.0
2015-Jun-28 08:33N 54°32' E 018°32'0 0.0
2015-Jun-28 07:33N 54°32' E 018°32'0 0.2
2015-Jun-28 06:33N 54°32' E 018°32'1211.8
2015-Jun-28 05:33N 54°35' E 018°52'1919.3
2015-Jun-28 04:33N 54°53' E 019°03'1919.5
2015-Jun-28 03:33N 55°12' E 019°14'25819.5
2015-Jun-27 14:20N 59°14' E 021°53'1519.5
2015-Jun-27 13:33N 59°23' E 022°17'2919.5
2015-Jun-27 12:05N 59°40' E 023°02'916.2
2015-Jun-27 11:31N 59°49' E 022°57'0 0.1
2015-Jun-27 07:13N 59°49' E 022°57'0 0.0
2015-Jun-27 06:28N 59°49' E 022°57'0 0.0
2015-Jun-27 05:13N 59°49' E 022°57'0 0.0
2015-Jun-27 04:19N 59°49' E 022°57'0 0.3
2015-Jun-27 03:33N 59°49' E 022°57'1111.3
2015-Jun-27 02:33N 59°38' E 022°58'32818.1
2015-Jun-26 08:25N 55°44' E 015°46'1618.7
2015-Jun-26 07:34N 55°36' E 015°22'1818.4
2015-Jun-26 06:34N 55°27' E 014°54'1818.1
2015-Jun-26 05:34N 55°15' E 014°29'2018.3
2015-Jun-26 04:29N 55°02' E 014°05'5618.3
2015-Jun-26 01:25N 54°40' E 012°35'1518.0
2015-Jun-26 00:33N 54°29' E 012°16'1818.0
2015-Jun-25 23:33N 54°18' E 011°51'1818.3
2015-Jun-25 22:33N 54°10' E 011°24'8 0.4
2015-Jun-25 02:32N 54°07' E 011°11'1818.5
2015-Jun-25 01:33N 54°17' E 011°37'1717.3
2015-Jun-25 00:33N 54°26' E 012°03'  
Track history (hours):
 
Tides and Currents Weather Stations Pressure Air Temp Water Temp Dewpoint Dewpoint Depression Visibility Wind Speed Wind Dir Waves Ship Positions

Pulpca

Last reported at 2015-Jul-04 16:33 UTC. Time now 2015-Jul-04 17:00 UTC.
Position N 54°21' E 011°58'.

Length 205 m; draft 7 m.

Type: Ship (hazmat cat A). MMSI: 245097000.

Date/timePositionNaut miles runAvg speedWind from/ knotsBaromVisibWave heightAir tempDewpointWater temp
2015-Jul-04 16:33N 54°21' E 011°58'2120.7
2015-Jul-04 15:34N 54°11' E 011°27'2120.6
2015-Jul-04 14:32N 53°59' E 010°56'8 0.9
2015-Jul-04 06:10N 53°54' E 010°47'6 1.7
2015-Jul-04 02:23N 53°58' E 010°54'1416.5
2015-Jul-04 01:33N 54°08' E 011°11'1717.4
2015-Jul-04 00:33N 54°17' E 011°36'1717.3
2015-Jul-03 23:33N 54°26' E 012°02'1615.8
2015-Jul-03 22:33N 54°37' E 012°20'1817.6
2015-Jul-03 21:33N 54°47' E 012°46'1817.6
2015-Jul-03 20:33N 54°54' E 013°14'1817.6
2015-Jul-03 19:33N 55°00' E 013°42'1717.2
2015-Jul-03 18:33N 55°08' E 014°10'1817.7
2015-Jul-03 17:33N 55°21' E 014°30'1717.6
2015-Jul-03 16:33N 55°32' E 014°55'1817.6
2015-Jul-03 15:33N 55°41' E 015°22'1817.7
2015-Jul-03 14:32N 55°50' E 015°49'5417.7
2015-Jul-03 11:30N 56°20' E 017°09'2117.8
2015-Jul-03 10:20N 56°33' E 017°39'3217.9
2015-Jul-03 08:33N 56°52' E 018°25'1817.8
2015-Jul-03 07:33N 57°06' E 018°45'10617.7
2015-Jul-03 01:33N 58°32' E 020°44'1818.0
2015-Jul-03 00:33N 58°46' E 021°06'2517.9
2015-Jul-02 23:10N 59°05' E 021°36'1117.5
2015-Jul-02 22:32N 59°13' E 021°51'1717.6
2015-Jul-02 21:33N 59°24' E 022°17'1817.7
2015-Jul-02 20:34N 59°34' E 022°45'1414.4
2015-Jul-02 19:34N 59°46' E 023°00'3 0.2
2015-Jul-02 04:32N 59°49' E 022°57'0 0.5
2015-Jul-02 03:33N 59°49' E 022°56'1313.3
2015-Jul-02 02:33N 59°36' E 022°56'1818.1
2015-Jul-02 01:33N 59°23' E 022°32'15418.2
2015-Jul-01 17:06N 57°25' E 019°23'1018.2
2015-Jul-01 16:33N 57°17' E 019°11'1818.2
2015-Jul-01 15:33N 57°03' E 018°50'3818.2
2015-Jul-01 13:29N 56°36' E 018°02'9118.4
2015-Jul-01 08:31N 55°44' E 015°47'1818.8
2015-Jul-01 07:33N 55°35' E 015°19'1918.7
2015-Jul-01 06:33N 55°26' E 014°50'1818.2
2015-Jul-01 05:34N 55°14' E 014°27'1818.3
2015-Jul-01 04:33N 55°01' E 014°03'1918.6
2015-Jul-01 03:33N 54°55' E 013°33'2118.6
2015-Jul-01 02:24N 54°47' E 012°59'1618.4
2015-Jul-01 01:33N 54°40' E 012°34'1818.3
2015-Jul-01 00:33N 54°27' E 012°12'1818.4
2015-Jun-30 23:33N 54°17' E 011°46'1918.6
2015-Jun-30 22:33N 54°08' E 011°18'23 1.3
2015-Jun-30 05:30N 53°54' E 010°47'0 0.0
2015-Jun-30 04:33N 53°54' E 010°47'0 0.0
2015-Jun-30 03:32N 53°54' E 010°47'0 0.0
2015-Jun-30 02:33N 53°54' E 010°47'1 0.1
2015-Jun-29 05:12N 53°54' E 010°49'4 6.8
2015-Jun-29 04:33N 53°58' E 010°53'1615.9
2015-Jun-29 03:34N 54°08' E 011°14'1919.4
2015-Jun-29 02:33N 54°16' E 011°44'1918.8
2015-Jun-29 01:34N 54°27' E 012°10'2319.2
2015-Jun-29 00:22N 54°45' E 012°35'5519.1
2015-Jun-28 21:27N 54°40' E 014°11'1719.1
2015-Jun-28 20:33N 54°39' E 014°40'2019.6
2015-Jun-28 19:34N 54°42' E 015°14'6819.6
2015-Jun-28 16:05N 54°54' E 017°10'1719.4
2015-Jun-28 15:12N 54°56' E 017°40'1219.6
2015-Jun-28 14:33N 54°56' E 018°01'1919.3
2015-Jun-28 13:33N 54°56' E 018°35'1918.6
2015-Jun-28 12:33N 54°43' E 018°58'1616.2
2015-Jun-28 11:34N 54°32' E 018°37'3 3.2
2015-Jun-28 10:33N 54°32' E 018°32'0 0.0
2015-Jun-28 09:33N 54°32' E 018°32'0 0.0
2015-Jun-28 08:33N 54°32' E 018°32'0 0.0
2015-Jun-28 07:33N 54°32' E 018°32'0 0.2
2015-Jun-28 06:33N 54°32' E 018°32'1211.8
2015-Jun-28 05:33N 54°35' E 018°52'1919.3
2015-Jun-28 04:33N 54°53' E 019°03'1919.5
2015-Jun-28 03:33N 55°12' E 019°14'25819.5
2015-Jun-27 14:20N 59°14' E 021°53'1519.5
2015-Jun-27 13:33N 59°23' E 022°17'2919.5
2015-Jun-27 12:05N 59°40' E 023°02'916.2
2015-Jun-27 11:31N 59°49' E 022°57'0 0.1
2015-Jun-27 07:13N 59°49' E 022°57'0 0.0
2015-Jun-27 06:28N 59°49' E 022°57'0 0.0
2015-Jun-27 05:13N 59°49' E 022°57'0 0.0
2015-Jun-27 04:19N 59°49' E 022°57'0 0.3
2015-Jun-27 03:33N 59°49' E 022°57'1111.3
2015-Jun-27 02:33N 59°38' E 022°58'32818.1
2015-Jun-26 08:25N 55°44' E 015°46'1618.7
2015-Jun-26 07:34N 55°36' E 015°22'1818.4
2015-Jun-26 06:34N 55°27' E 014°54'1818.1
2015-Jun-26 05:34N 55°15' E 014°29'2018.3
2015-Jun-26 04:29N 55°02' E 014°05'5618.3
2015-Jun-26 01:25N 54°40' E 012°35'1518.0
2015-Jun-26 00:33N 54°29' E 012°16'1818.0
2015-Jun-25 23:33N 54°18' E 011°51'1818.3
2015-Jun-25 22:33N 54°10' E 011°24'8 0.4
2015-Jun-25 02:32N 54°07' E 011°11'1818.5
2015-Jun-25 01:33N 54°17' E 011°37'1717.3
2015-Jun-25 00:33N 54°26' E 012°03'  

Dump ship's entire track history